sensor_id;sensor_type;location;lat;lon;timestamp;pressure;altitude;pressure_sealevel;temperature;humidity
51313;BME280;37397;53.226;10.400;2022-12-29T00:01:38;99764.91;;;8.91;79.50
51313;BME280;37397;53.226;10.400;2022-12-29T00:04:06;99788.44;;;8.91;79.39
51313;BME280;37397;53.226;10.400;2022-12-29T00:06:38;99782.75;;;8.91;79.32
51313;BME280;37397;53.226;10.400;2022-12-29T00:09:04;99773.94;;;8.89;79.39
51313;BME280;37397;53.226;10.400;2022-12-29T00:11:31;99783.84;;;8.94;79.15
51313;BME280;37397;53.226;10.400;2022-12-29T00:13:58;99780.22;;;8.93;79.49
51313;BME280;37397;53.226;10.400;2022-12-29T00:16:51;99775.31;;;8.94;79.36
51313;BME280;37397;53.226;10.400;2022-12-29T00:19:17;99767.53;;;8.94;79.48
51313;BME280;37397;53.226;10.400;2022-12-29T00:22:03;99766.28;;;8.96;79.44
51313;BME280;37397;53.226;10.400;2022-12-29T00:24:48;99768.31;;;8.95;79.41
51313;BME280;37397;53.226;10.400;2022-12-29T00:27:27;99752.81;;;8.96;79.53
51313;BME280;37397;53.226;10.400;2022-12-29T00:30:19;99749.69;;;8.94;79.42
51313;BME280;37397;53.226;10.400;2022-12-29T00:33:11;99734.97;;;8.96;79.41
51313;BME280;37397;53.226;10.400;2022-12-29T00:36:01;99707.38;;;8.81;79.52
51313;BME280;37397;53.226;10.400;2022-12-29T00:38:31;99701.69;;;8.81;79.52
51313;BME280;37397;53.226;10.400;2022-12-29T00:41:19;99732.41;;;8.98;79.62
51313;BME280;37397;53.226;10.400;2022-12-29T00:44:08;99735.75;;;8.96;79.54
51313;BME280;37397;53.226;10.400;2022-12-29T00:46:38;99739.66;;;8.99;79.58
51313;BME280;37397;53.226;10.400;2022-12-29T00:49:11;99731.31;;;8.95;79.51
51313;BME280;37397;53.226;10.400;2022-12-29T00:51:59;99730.63;;;9.00;79.45
51313;BME280;37397;53.226;10.400;2022-12-29T00:54:29;99722.09;;;9.00;79.42
51313;BME280;37397;53.226;10.400;2022-12-29T00:56:56;99726.50;;;9.01;79.58
51313;BME280;37397;53.226;10.400;2022-12-29T00:59:23;99720.53;;;8.99;79.55
51313;BME280;37397;53.226;10.400;2022-12-29T01:01:55;99729.34;;;9.01;79.50
51313;BME280;37397;53.226;10.400;2022-12-29T01:04:24;99711.78;;;9.03;79.48
51313;BME280;37397;53.226;10.400;2022-12-29T01:06:51;99721.59;;;9.02;79.50
51313;BME280;37397;53.226;10.400;2022-12-29T01:09:21;99710.22;;;9.02;79.53
51313;BME280;37397;53.226;10.400;2022-12-29T01:12:08;99714.13;;;9.04;79.53
51313;BME280;37397;53.226;10.400;2022-12-29T01:14:36;99701.97;;;9.04;79.50
51313;BME280;37397;53.226;10.400;2022-12-29T01:17:03;99717.75;;;9.05;79.60
51313;BME280;37397;53.226;10.400;2022-12-29T01:19:33;99705.59;;;9.04;79.58
51313;BME280;37397;53.226;10.400;2022-12-29T01:22:03;99698.13;;;9.07;79.41
51313;BME280;37397;53.226;10.400;2022-12-29T01:24:29;99697.84;;;9.05;79.56
51313;BME280;37397;53.226;10.400;2022-12-29T01:26:56;99687.50;;;9.07;79.42
51313;BME280;37397;53.226;10.400;2022-12-29T01:29:22;99680.56;;;9.08;79.44
51313;BME280;37397;53.226;10.400;2022-12-29T01:31:49;99688.78;;;9.06;79.55
51313;BME280;37397;53.226;10.400;2022-12-29T01:34:17;99687.78;;;9.09;79.58
51313;BME280;37397;53.226;10.400;2022-12-29T01:36:46;99687.78;;;9.09;79.56
51313;BME280;37397;53.226;10.400;2022-12-29T01:39:13;99677.41;;;9.06;79.48
51313;BME280;37397;53.226;10.400;2022-12-29T01:41:41;99668.88;;;9.06;79.60
51313;BME280;37397;53.226;10.400;2022-12-29T01:47:15;99669.16;;;9.08;79.78
51313;BME280;37397;53.226;10.400;2022-12-29T01:49:45;99660.13;;;9.10;79.70
51313;BME280;37397;53.226;10.400;2022-12-29T01:52:15;99655.22;;;9.10;79.65
51313;BME280;37397;53.226;10.400;2022-12-29T01:54:48;99673.88;;;9.11;79.72
51313;BME280;37397;53.226;10.400;2022-12-29T01:57:24;99666.59;;;9.10;79.73
51313;BME280;37397;53.226;10.400;2022-12-29T02:00:05;99667.59;;;9.07;79.71
51313;BME280;37397;53.226;10.400;2022-12-29T02:02:42;99666.59;;;9.10;79.80
51313;BME280;37397;53.226;10.400;2022-12-29T02:05:29;99659.06;;;9.07;79.64
51313;BME280;37397;53.226;10.400;2022-12-29T02:08:00;99664.81;;;9.13;79.67
51313;BME280;37397;53.226;10.400;2022-12-29T02:10:30;99668.72;;;9.16;79.88
51313;BME280;37397;53.226;10.400;2022-12-29T02:12:57;99652.44;;;9.16;79.88
51313;BME280;37397;53.226;10.400;2022-12-29T02:21:22;99650.66;;;9.19;79.85
51313;BME280;37397;53.226;10.400;2022-12-29T02:26:49;99647.53;;;9.17;79.87
51313;BME280;37397;53.226;10.400;2022-12-29T02:29:42;99644.94;;;9.19;79.94
51313;BME280;37397;53.226;10.400;2022-12-29T02:39:26;99616.50;;;9.19;79.89
51313;BME280;37397;53.226;10.400;2022-12-29T02:44:55;99625.59;;;9.23;80.13
51313;BME280;37397;53.226;10.400;2022-12-29T02:50:27;99622.75;;;9.23;80.17
51313;BME280;37397;53.226;10.400;2022-12-29T02:53:01;99623.28;;;9.27;80.26
51313;BME280;37397;53.226;10.400;2022-12-29T02:55:28;99619.19;;;9.28;80.19
51313;BME280;37397;53.226;10.400;2022-12-29T02:58:20;99613.47;;;9.28;80.07
51313;BME280;37397;53.226;10.400;2022-12-29T03:01:01;99609.38;;;9.29;80.20
51313;BME280;37397;53.226;10.400;2022-12-29T03:06:33;99614.03;;;9.32;80.22
51313;BME280;37397;53.226;10.400;2022-12-29T03:09:13;99600.59;;;9.33;80.27
51313;BME280;37397;53.226;10.400;2022-12-29T03:15:08;99596.94;;;9.32;80.32
51313;BME280;37397;53.226;10.400;2022-12-29T03:18:05;99583.22;;;9.30;80.15
51313;BME280;37397;53.226;10.400;2022-12-29T03:20:42;99596.94;;;9.32;80.23
51313;BME280;37397;53.226;10.400;2022-12-29T03:23:13;99585.84;;;9.34;80.28
51313;BME280;37397;53.226;10.400;2022-12-29T03:25:44;99587.69;;;9.37;80.20
51313;BME280;37397;53.226;10.400;2022-12-29T03:28:18;99584.34;;;9.39;80.13
51313;BME280;37397;53.226;10.400;2022-12-29T03:30:47;99572.97;;;9.39;80.27
51313;BME280;37397;53.226;10.400;2022-12-29T03:33:23;99572.47;;;9.40;80.13
51313;BME280;37397;53.226;10.400;2022-12-29T03:35:51;99562.59;;;9.36;80.35
51313;BME280;37397;53.226;10.400;2022-12-29T03:38:24;99556.09;;;9.35;80.15
51313;BME280;37397;53.226;10.400;2022-12-29T03:40:55;99563.91;;;9.40;80.31
51313;BME280;37397;53.226;10.400;2022-12-29T03:43:26;99561.56;;;9.39;80.55
51313;BME280;37397;53.226;10.400;2022-12-29T03:45:53;99555.38;;;9.40;80.64
51313;BME280;37397;53.226;10.400;2022-12-29T03:48:20;99540.09;;;9.43;80.57
51313;BME280;37397;53.226;10.400;2022-12-29T03:50:48;99535.22;;;9.44;80.46
51313;BME280;37397;53.226;10.400;2022-12-29T03:53:16;99540.41;;;9.45;80.24
51313;BME280;37397;53.226;10.400;2022-12-29T03:55:42;99534.97;;;9.47;80.46
51313;BME280;37397;53.226;10.400;2022-12-29T03:58:10;99517.88;;;9.47;80.38
51313;BME280;37397;53.226;10.400;2022-12-29T04:00:49;99542.25;;;9.48;80.36
51313;BME280;37397;53.226;10.400;2022-12-29T04:03:16;99537.31;;;9.49;80.54
51313;BME280;37397;53.226;10.400;2022-12-29T04:05:44;99539.66;;;9.51;80.54
51313;BME280;37397;53.226;10.400;2022-12-29T04:08:10;99501.88;;;9.50;80.51
51313;BME280;37397;53.226;10.400;2022-12-29T04:10:37;99522.56;;;9.51;80.42
51313;BME280;37397;53.226;10.400;2022-12-29T04:13:04;99533.97;;;9.51;80.51
51313;BME280;37397;53.226;10.400;2022-12-29T04:15:31;99535.03;;;9.53;80.39
51313;BME280;37397;53.226;10.400;2022-12-29T04:17:58;99534.53;;;9.55;80.32
51313;BME280;37397;53.226;10.400;2022-12-29T04:20:25;99535.31;;;9.55;80.36
51313;BME280;37397;53.226;10.400;2022-12-29T04:23:11;99534.53;;;9.55;80.28
51313;BME280;37397;53.226;10.400;2022-12-29T04:25:39;99529.88;;;9.57;80.39
51313;BME280;37397;53.226;10.400;2022-12-29T04:28:07;99530.38;;;9.56;80.24
51313;BME280;37397;53.226;10.400;2022-12-29T04:31:04;99526.25;;;9.57;80.30
51313;BME280;37397;53.226;10.400;2022-12-29T04:33:37;99513.28;;;9.56;80.58
51313;BME280;37397;53.226;10.400;2022-12-29T04:36:05;99516.41;;;9.58;80.51
51313;BME280;37397;53.226;10.400;2022-12-29T04:38:34;99513.84;;;9.60;80.50
51313;BME280;37397;53.226;10.400;2022-12-29T04:41:02;99506.59;;;9.59;80.54
51313;BME280;37397;53.226;10.400;2022-12-29T04:43:30;99515.38;;;9.61;80.53
51313;BME280;37397;53.226;10.400;2022-12-29T04:46:15;99509.69;;;9.61;80.45
51313;BME280;37397;53.226;10.400;2022-12-29T04:48:48;99503.50;;;9.62;80.49
51313;BME280;37397;53.226;10.400;2022-12-29T04:51:30;99499.31;;;9.58;80.57
51313;BME280;37397;53.226;10.400;2022-12-29T04:53:56;99491.84;;;9.60;80.75
51313;BME280;37397;53.226;10.400;2022-12-29T04:56:24;99493.16;;;9.65;80.50
51313;BME280;37397;53.226;10.400;2022-12-29T04:58:51;99498.09;;;9.64;80.68
51313;BME280;37397;53.226;10.400;2022-12-29T05:01:19;99496.28;;;9.67;80.69
51313;BME280;37397;53.226;10.400;2022-12-29T05:03:45;99489.53;;;9.64;80.71
51313;BME280;37397;53.226;10.400;2022-12-29T05:06:12;99490.06;;;9.68;80.76
51313;BME280;37397;53.226;10.400;2022-12-29T05:08:38;99480.75;;;9.68;80.67
51313;BME280;37397;53.226;10.400;2022-12-29T05:11:05;99479.75;;;9.71;80.84
51313;BME280;37397;53.226;10.400;2022-12-29T05:13:32;99488.00;;;9.69;80.75
51313;BME280;37397;53.226;10.400;2022-12-29T05:16:00;99472.47;;;9.70;80.71
51313;BME280;37397;53.226;10.400;2022-12-29T05:18:26;99474.06;;;9.71;80.79
51313;BME280;37397;53.226;10.400;2022-12-29T05:20:53;99489.84;;;9.72;80.82
51313;BME280;37397;53.226;10.400;2022-12-29T05:23:21;99486.72;;;9.70;80.68
51313;BME280;37397;53.226;10.400;2022-12-29T05:25:54;99495.81;;;9.74;80.76
51313;BME280;37397;53.226;10.400;2022-12-29T05:28:37;99495.81;;;9.74;80.77
51313;BME280;37397;53.226;10.400;2022-12-29T05:31:10;99491.66;;;9.75;80.84
51313;BME280;37397;53.226;10.400;2022-12-29T05:33:37;99502.56;;;9.77;80.94
51313;BME280;37397;53.226;10.400;2022-12-29T05:36:05;99490.91;;;9.75;80.75
51313;BME280;37397;53.226;10.400;2022-12-29T05:38:33;99486.53;;;9.79;80.69
51313;BME280;37397;53.226;10.400;2022-12-29T05:41:00;99490.66;;;9.78;80.68
51313;BME280;37397;53.226;10.400;2022-12-29T05:43:49;99484.44;;;9.74;80.72
51313;BME280;37397;53.226;10.400;2022-12-29T05:46:28;99495.34;;;9.81;80.66
51313;BME280;37397;53.226;10.400;2022-12-29T05:49:04;99488.88;;;9.81;80.60
51313;BME280;37397;53.226;10.400;2022-12-29T05:51:36;99486.78;;;9.81;80.57
51313;BME280;37397;53.226;10.400;2022-12-29T05:54:03;99497.66;;;9.83;80.57
51313;BME280;37397;53.226;10.400;2022-12-29T05:56:30;99484.44;;;9.80;80.73
51313;BME280;37397;53.226;10.400;2022-12-29T05:58:57;99481.34;;;9.83;80.73
51313;BME280;37397;53.226;10.400;2022-12-29T06:01:24;99495.09;;;9.85;80.64
51313;BME280;37397;53.226;10.400;2022-12-29T06:03:52;99491.47;;;9.84;80.70
51313;BME280;37397;53.226;10.400;2022-12-29T06:06:19;99479.81;;;9.82;80.72
51313;BME280;37397;53.226;10.400;2022-12-29T06:08:46;99474.09;;;9.82;80.52
51313;BME280;37397;53.226;10.400;2022-12-29T06:11:13;99474.38;;;9.84;80.51
51313;BME280;37397;53.226;10.400;2022-12-29T06:13:46;99481.63;;;9.85;80.62
51313;BME280;37397;53.226;10.400;2022-12-29T06:16:12;99483.19;;;9.86;80.57
51313;BME280;37397;53.226;10.400;2022-12-29T06:18:41;99469.94;;;9.83;80.65
51313;BME280;37397;53.226;10.400;2022-12-29T06:21:08;99464.81;;;9.88;80.63
51313;BME280;37397;53.226;10.400;2022-12-29T06:23:35;99471.28;;;9.88;80.56
51313;BME280;37397;53.226;10.400;2022-12-29T06:26:03;99465.56;;;9.88;80.53
51313;BME280;37397;53.226;10.400;2022-12-29T06:28:31;99473.63;;;9.90;80.56
51313;BME280;37397;53.226;10.400;2022-12-29T06:30:58;99467.91;;;9.90;80.95
51313;BME280;37397;53.226;10.400;2022-12-29T06:33:26;99473.63;;;9.90;80.35
51313;BME280;37397;53.226;10.400;2022-12-29T06:35:52;99475.97;;;9.91;80.56
51313;BME280;37397;53.226;10.400;2022-12-29T06:38:19;99475.19;;;9.91;80.46
51313;BME280;37397;53.226;10.400;2022-12-29T06:40:45;99471.03;;;9.92;80.45
51313;BME280;37397;53.226;10.400;2022-12-29T06:43:30;99464.81;;;9.88;80.23
51313;BME280;37397;53.226;10.400;2022-12-29T06:46:15;99459.63;;;9.92;80.51
51313;BME280;37397;53.226;10.400;2022-12-29T06:48:42;99459.63;;;9.92;80.38
51313;BME280;37397;53.226;10.400;2022-12-29T06:51:08;99455.50;;;9.87;80.63
51313;BME280;37397;53.226;10.400;2022-12-29T06:53:35;99455.50;;;9.93;80.44
51313;BME280;37397;53.226;10.400;2022-12-29T06:56:01;99451.88;;;9.92;80.33
51313;BME280;37397;53.226;10.400;2022-12-29T06:58:28;99448.53;;;9.94;80.43
51313;BME280;37397;53.226;10.400;2022-12-29T07:00:54;99442.03;;;9.93;80.48
51313;BME280;37397;53.226;10.400;2022-12-29T07:03:21;99422.88;;;9.94;80.53
51313;BME280;37397;53.226;10.400;2022-12-29T07:05:48;99421.31;;;9.93;80.46
51313;BME280;37397;53.226;10.400;2022-12-29T07:08:14;99430.91;;;9.95;80.57
51313;BME280;37397;53.226;10.400;2022-12-29T07:10:42;99443.09;;;9.96;80.62
51313;BME280;37397;53.226;10.400;2022-12-29T07:15:38;99439.97;;;9.94;80.61
51313;BME280;37397;53.226;10.400;2022-12-29T07:18:04;99444.66;;;9.97;80.57
51313;BME280;37397;53.226;10.400;2022-12-29T07:20:31;99438.97;;;9.97;80.46
51313;BME280;37397;53.226;10.400;2022-12-29T07:22:58;99431.44;;;9.94;80.41
51313;BME280;37397;53.226;10.400;2022-12-29T07:25:24;99447.00;;;9.98;80.43
51313;BME280;37397;53.226;10.400;2022-12-29T07:27:51;99453.47;;;9.99;80.45
51313;BME280;37397;53.226;10.400;2022-12-29T07:30:17;99456.31;;;9.99;80.39
51313;BME280;37397;53.226;10.400;2022-12-29T07:32:44;99465.88;;;9.96;80.40
51313;BME280;37397;53.226;10.400;2022-12-29T07:35:10;99479.38;;;10.01;80.45
51313;BME280;37397;53.226;10.400;2022-12-29T07:37:37;99485.06;;;10.01;80.44
51313;BME280;37397;53.226;10.400;2022-12-29T07:40:04;99485.38;;;10.03;80.37
51313;BME280;37397;53.226;10.400;2022-12-29T07:42:31;99496.75;;;10.03;80.41
51313;BME280;37397;53.226;10.400;2022-12-29T07:44:58;99498.81;;;10.02;80.54
51313;BME280;37397;53.226;10.400;2022-12-29T07:47:29;99507.88;;;10.01;80.65
51313;BME280;37397;53.226;10.400;2022-12-29T07:49:55;99499.63;;;10.03;80.53
51313;BME280;37397;53.226;10.400;2022-12-29T07:52:22;99502.72;;;10.05;80.46
51313;BME280;37397;53.226;10.400;2022-12-29T07:54:49;99494.19;;;10.05;80.65
51313;BME280;37397;53.226;10.400;2022-12-29T07:57:15;99491.06;;;10.03;80.66
51313;BME280;37397;53.226;10.400;2022-12-29T07:59:41;99509.47;;;10.08;80.72
51313;BME280;37397;53.226;10.400;2022-12-29T08:02:10;99500.91;;;10.08;80.65
51313;BME280;37397;53.226;10.400;2022-12-29T08:04:37;99498.06;;;10.08;80.66
51313;BME280;37397;53.226;10.400;2022-12-29T08:07:04;99504.25;;;10.06;80.53
51313;BME280;37397;53.226;10.400;2022-12-29T08:09:31;99501.97;;;10.10;80.40
51313;BME280;37397;53.226;10.400;2022-12-29T08:11:57;99503.25;;;10.09;80.55
51313;BME280;37397;53.226;10.400;2022-12-29T08:14:24;99512.59;;;10.10;80.54
51313;BME280;37397;53.226;10.400;2022-12-29T08:16:50;99514.94;;;10.11;80.56
51313;BME280;37397;53.226;10.400;2022-12-29T08:19:17;99517.78;;;10.11;80.58
51313;BME280;37397;53.226;10.400;2022-12-29T08:21:43;99530.22;;;10.08;80.58
51313;BME280;37397;53.226;10.400;2022-12-29T08:24:10;99530.47;;;10.10;80.46
51313;BME280;37397;53.226;10.400;2022-12-29T08:26:36;99535.16;;;10.13;80.45
51313;BME280;37397;53.226;10.400;2022-12-29T08:29:03;99547.06;;;10.12;80.56
51313;BME280;37397;53.226;10.400;2022-12-29T08:31:29;99561.56;;;10.14;80.51
51313;BME280;37397;53.226;10.400;2022-12-29T08:33:56;99560.81;;;10.13;80.49
51313;BME280;37397;53.226;10.400;2022-12-29T08:36:22;99557.97;;;10.13;80.40
51313;BME280;37397;53.226;10.400;2022-12-29T08:38:49;99560.81;;;10.13;80.39
51313;BME280;37397;53.226;10.400;2022-12-29T08:41:15;99562.38;;;10.14;80.40
51313;BME280;37397;53.226;10.400;2022-12-29T08:43:46;99565.22;;;10.14;80.28
51313;BME280;37397;53.226;10.400;2022-12-29T08:46:12;99564.44;;;10.14;80.30
51313;BME280;37397;53.226;10.400;2022-12-29T08:48:39;99544.47;;;10.14;80.28
51313;BME280;37397;53.226;10.400;2022-12-29T08:51:05;99568.06;;;10.14;80.27
51313;BME280;37397;53.226;10.400;2022-12-29T08:53:32;99557.44;;;10.15;80.24
51313;BME280;37397;53.226;10.400;2022-12-29T08:56:00;99550.97;;;10.14;80.29
51313;BME280;37397;53.226;10.400;2022-12-29T08:58:40;99557.97;;;10.13;80.26
51313;BME280;37397;53.226;10.400;2022-12-29T09:01:07;99573.47;;;10.12;80.20
51313;BME280;37397;53.226;10.400;2022-12-29T09:03:34;99564.41;;;10.08;80.21
51313;BME280;37397;53.226;10.400;2022-12-29T09:06:20;99575.06;;;10.13;80.25
51313;BME280;37397;53.226;10.400;2022-12-29T09:08:47;99572.22;;;10.13;80.23
51313;BME280;37397;53.226;10.400;2022-12-29T09:11:16;99568.06;;;10.14;80.21
51313;BME280;37397;53.226;10.400;2022-12-29T09:13:44;99564.44;;;10.14;80.23
51313;BME280;37397;53.226;10.400;2022-12-29T09:16:11;99565.75;;;10.13;80.13
51313;BME280;37397;53.226;10.400;2022-12-29T09:18:38;99568.06;;;10.14;80.24
51313;BME280;37397;53.226;10.400;2022-12-29T09:21:06;99562.38;;;10.14;80.27
51313;BME280;37397;53.226;10.400;2022-12-29T09:23:33;99562.38;;;10.14;80.20
51313;BME280;37397;53.226;10.400;2022-12-29T09:26:00;99563.66;;;10.13;80.05
51313;BME280;37397;53.226;10.400;2022-12-29T09:28:27;99557.97;;;10.13;80.26
51313;BME280;37397;53.226;10.400;2022-12-29T09:30:56;99565.22;;;10.14;80.25
51313;BME280;37397;53.226;10.400;2022-12-29T09:33:23;99556.38;;;10.12;80.34
51313;BME280;37397;53.226;10.400;2022-12-29T09:35:52;99564.72;;;10.16;80.19
51313;BME280;37397;53.226;10.400;2022-12-29T09:38:19;99570.41;;;10.16;80.02
51313;BME280;37397;53.226;10.400;2022-12-29T09:40:53;99561.34;;;10.17;80.26
51313;BME280;37397;53.226;10.400;2022-12-29T09:43:50;99566.78;;;10.15;80.18
51313;BME280;37397;53.226;10.400;2022-12-29T09:46:34;99573.78;;;10.14;80.09
51313;BME280;37397;53.226;10.400;2022-12-29T09:49:15;99578.97;;;10.16;80.15
51313;BME280;37397;53.226;10.400;2022-12-29T09:51:46;99591.91;;;10.17;80.52
51313;BME280;37397;53.226;10.400;2022-12-29T09:54:38;99590.59;;;10.12;80.35
51313;BME280;37397;53.226;10.400;2022-12-29T09:57:21;99602.53;;;10.16;80.42
51313;BME280;37397;53.226;10.400;2022-12-29T09:59:51;99608.50;;;10.18;80.47
51313;BME280;37397;53.226;10.400;2022-12-29T10:02:31;99607.75;;;10.18;80.38
51313;BME280;37397;53.226;10.400;2022-12-29T10:04:58;99606.16;;;10.17;80.51
51313;BME280;37397;53.226;10.400;2022-12-29T10:07:38;99595.53;;;10.17;80.59
51313;BME280;37397;53.226;10.400;2022-12-29T10:12:54;99605.41;;;10.22;80.52
51313;BME280;37397;53.226;10.400;2022-12-29T10:16:02;99589.63;;;10.21;80.75
51313;BME280;37397;53.226;10.400;2022-12-29T10:24:12;99586.03;;;10.26;80.68
51313;BME280;37397;53.226;10.400;2022-12-29T10:26:40;99579.53;;;10.26;80.52
51313;BME280;37397;53.226;10.400;2022-12-29T10:29:19;99597.69;;;10.28;80.48
51313;BME280;37397;53.226;10.400;2022-12-29T10:31:50;99589.63;;;10.27;80.42
51313;BME280;37397;53.226;10.400;2022-12-29T10:34:25;99595.59;;;10.29;80.52
51313;BME280;37397;53.226;10.400;2022-12-29T10:37:29;99590.94;;;10.26;80.37
51313;BME280;37397;53.226;10.400;2022-12-29T10:40:02;99597.19;;;10.30;80.31
51313;BME280;37397;53.226;10.400;2022-12-29T10:42:41;99593.81;;;10.31;80.39
51313;BME280;37397;53.226;10.400;2022-12-29T10:45:14;99596.97;;;10.33;80.33
51313;BME280;37397;53.226;10.400;2022-12-29T10:50:17;99590.75;;;10.35;80.36
51313;BME280;37397;53.226;10.400;2022-12-29T10:52:46;99598.25;;;10.32;80.23
51313;BME280;37397;53.226;10.400;2022-12-29T10:55:21;99610.19;;;10.36;80.28
51313;BME280;37397;53.226;10.400;2022-12-29T10:57:48;99608.16;;;10.37;80.02
51313;BME280;37397;53.226;10.400;2022-12-29T11:00:21;99620.09;;;10.41;80.23
51313;BME280;37397;53.226;10.400;2022-12-29T11:03:10;99611.25;;;10.39;79.94
51313;BME280;37397;53.226;10.400;2022-12-29T11:06:07;99612.84;;;10.40;80.08
51313;BME280;37397;53.226;10.400;2022-12-29T11:08:38;99617.72;;;10.39;80.29
51313;BME280;37397;53.226;10.400;2022-12-29T11:11:07;99618.81;;;10.42;80.18
51313;BME280;37397;53.226;10.400;2022-12-29T11:13:47;99633.81;;;10.43;80.00
51313;BME280;37397;53.226;10.400;2022-12-29T11:16:13;99619.84;;;10.45;80.00
51313;BME280;37397;53.226;10.400;2022-12-29T11:18:40;99631.25;;;10.45;79.86
51313;BME280;37397;53.226;10.400;2022-12-29T11:21:31;99616.47;;;10.46;79.78
51313;BME280;37397;53.226;10.400;2022-12-29T11:24:04;99620.38;;;10.49;79.84
51313;BME280;37397;53.226;10.400;2022-12-29T11:26:32;99603.00;;;10.47;79.85
51313;BME280;37397;53.226;10.400;2022-12-29T11:31:43;99609.53;;;10.53;79.90
51313;BME280;37397;53.226;10.400;2022-12-29T11:34:36;99602.25;;;10.52;79.67
51313;BME280;37397;53.226;10.400;2022-12-29T11:37:06;99593.69;;;10.52;79.68
51313;BME280;37397;53.226;10.400;2022-12-29T11:39:40;99594.72;;;10.54;79.77
51313;BME280;37397;53.226;10.400;2022-12-29T11:42:15;99599.41;;;10.57;79.74
51313;BME280;37397;53.226;10.400;2022-12-29T11:44:48;99591.38;;;10.56;79.73
51313;BME280;37397;53.226;10.400;2022-12-29T11:47:42;99605.91;;;10.58;79.61
51313;BME280;37397;53.226;10.400;2022-12-29T11:50:18;99601.75;;;10.59;79.53
51313;BME280;37397;53.226;10.400;2022-12-29T11:52:48;99602.03;;;10.61;79.69
51313;BME280;37397;53.226;10.400;2022-12-29T11:55:21;99603.59;;;10.62;79.50
51313;BME280;37397;53.226;10.400;2022-12-29T11:57:50;99595.03;;;10.62;79.67
51313;BME280;37397;53.226;10.400;2022-12-29T12:00:20;99610.34;;;10.65;79.49
51313;BME280;37397;53.226;10.400;2022-12-29T12:03:09;99600.47;;;10.66;79.39
51313;BME280;37397;53.226;10.400;2022-12-29T12:05:47;99603.06;;;10.64;79.21
51313;BME280;37397;53.226;10.400;2022-12-29T12:08:33;99598.44;;;10.66;79.20
51313;BME280;37397;53.226;10.400;2022-12-29T12:11:10;99595.06;;;10.68;79.12
51313;BME280;37397;53.226;10.400;2022-12-29T12:16:15;99598.69;;;10.68;79.04
51313;BME280;37397;53.226;10.400;2022-12-29T12:18:57;99596.59;;;10.69;78.93
51313;BME280;37397;53.226;10.400;2022-12-29T12:21:39;99591.19;;;10.71;78.74
51313;BME280;37397;53.226;10.400;2022-12-29T12:24:40;99602.59;;;10.71;78.65
51313;BME280;37397;53.226;10.400;2022-12-29T12:27:28;99593.75;;;10.69;78.67
51313;BME280;37397;53.226;10.400;2022-12-29T12:30:14;99596.59;;;10.69;78.64
51313;BME280;37397;53.226;10.400;2022-12-29T12:32:55;99596.09;;;10.70;78.32
51313;BME280;37397;53.226;10.400;2022-12-29T12:44:18;99606.50;;;10.73;78.21
51313;BME280;37397;53.226;10.400;2022-12-29T12:46:59;99602.09;;;10.72;78.14
51313;BME280;37397;53.226;10.400;2022-12-29T13:03:45;99599.47;;;10.69;77.91
51313;BME280;37397;53.226;10.400;2022-12-29T13:06:52;99612.19;;;10.68;77.58
51313;BME280;37397;53.226;10.400;2022-12-29T13:09:43;99632.69;;;10.72;77.78
51313;BME280;37397;53.226;10.400;2022-12-29T13:12:31;99626.19;;;10.71;77.75
51313;BME280;37397;53.226;10.400;2022-12-29T13:20:37;99631.13;;;10.71;77.68
51313;BME280;37397;53.226;10.400;2022-12-29T13:23:24;99630.13;;;10.74;77.31
51313;BME280;37397;53.226;10.400;2022-12-29T13:26:09;99641.53;;;10.74;77.37
51313;BME280;37397;53.226;10.400;2022-12-29T13:35:31;99647.22;;;10.74;77.22
51313;BME280;37397;53.226;10.400;2022-12-29T13:38:00;99641.53;;;10.74;77.10
51313;BME280;37397;53.226;10.400;2022-12-29T13:40:32;99637.34;;;10.75;77.24
51313;BME280;37397;53.226;10.400;2022-12-29T13:43:01;99647.50;;;10.76;77.19
51313;BME280;37397;53.226;10.400;2022-12-29T13:45:30;99646.22;;;10.77;77.36
51313;BME280;37397;53.226;10.400;2022-12-29T13:48:03;99641.78;;;10.76;77.30
51313;BME280;37397;53.226;10.400;2022-12-29T13:50:36;99646.22;;;10.77;77.17
51313;BME280;37397;53.226;10.400;2022-12-29T13:53:23;99658.41;;;10.77;77.17
51313;BME280;37397;53.226;10.400;2022-12-29T13:56:05;99672.16;;;10.79;77.18
51313;BME280;37397;53.226;10.400;2022-12-29T13:58:54;99666.94;;;10.77;77.26
51313;BME280;37397;53.226;10.400;2022-12-29T14:01:26;99673.69;;;10.80;77.27
51313;BME280;37397;53.226;10.400;2022-12-29T14:03:56;99673.19;;;10.82;77.15
51313;BME280;37397;53.226;10.400;2022-12-29T14:06:32;99674.50;;;10.81;77.10
51313;BME280;37397;53.226;10.400;2022-12-29T14:12:00;99690.81;;;10.80;77.03
51313;BME280;37397;53.226;10.400;2022-12-29T14:14:30;99691.63;;;10.81;76.82
51313;BME280;37397;53.226;10.400;2022-12-29T14:17:11;99687.69;;;10.78;76.71
51313;BME280;37397;53.226;10.400;2022-12-29T14:19:43;99698.09;;;10.81;76.65
51313;BME280;37397;53.226;10.400;2022-12-29T14:22:10;99710.78;;;10.80;76.59
51313;BME280;37397;53.226;10.400;2022-12-29T14:24:44;99696.53;;;10.80;76.53
51313;BME280;37397;53.226;10.400;2022-12-29T14:34:56;99725.34;;;10.82;76.63
51313;BME280;37397;53.226;10.400;2022-12-29T14:37:31;99722.22;;;10.80;76.44
51313;BME280;37397;53.226;10.400;2022-12-29T14:42:46;99732.59;;;10.83;76.50
51313;BME280;37397;53.226;10.400;2022-12-29T14:47:43;99746.88;;;10.83;76.43
51313;BME280;37397;53.226;10.400;2022-12-29T14:52:49;99755.16;;;10.81;76.45
51313;BME280;37397;53.226;10.400;2022-12-29T14:55:41;99755.16;;;10.81;76.43
51313;BME280;37397;53.226;10.400;2022-12-29T14:58:19;99775.91;;;10.82;76.24
51313;BME280;37397;53.226;10.400;2022-12-29T15:00:47;99770.72;;;10.80;76.32
51313;BME280;37397;53.226;10.400;2022-12-29T15:06:11;99790.44;;;10.78;76.49
51313;BME280;37397;53.226;10.400;2022-12-29T15:08:50;99779.78;;;10.79;76.19
51313;BME280;37397;53.226;10.400;2022-12-29T15:11:23;99794.84;;;10.79;76.44